ΕΜΥ, Εθνική Μετεωρολογική Υπηρεσία - Δελτία Καιρού, Προγνώσεις

ΑΕΡΟΝΑΥΤΙΛΙΑ

GREEK AIRPORTS CODES

TAF LGEL 172300Z 1800/1824 VRB05KT 9999 FEW025 TEMPO 1812/1818 17010KT=

EUROPEAN AIRPORTS CODES

LOWW 172250Z 30010KT CAVOK 17/10 Q1017 NOSIG=